sensor_id;sensor_type;location;lat;lon;timestamp;P1;durP1;ratioP1;P2;durP2;ratioP2
15055;SDS011;7626;42.674;23.284;2022-07-29T00:01:08;9.13;;;8.27;;
15055;SDS011;7626;42.674;23.284;2022-07-29T00:03:34;9.90;;;7.90;;
15055;SDS011;7626;42.674;23.284;2022-07-29T00:06:01;9.75;;;8.57;;
15055;SDS011;7626;42.674;23.284;2022-07-29T00:08:27;8.73;;;7.90;;
15055;SDS011;7626;42.674;23.284;2022-07-29T00:10:54;7.95;;;7.25;;
15055;SDS011;7626;42.674;23.284;2022-07-29T00:13:20;8.60;;;7.82;;
15055;SDS011;7626;42.674;23.284;2022-07-29T00:15:48;7.80;;;7.00;;
15055;SDS011;7626;42.674;23.284;2022-07-29T00:18:15;7.35;;;6.75;;
15055;SDS011;7626;42.674;23.284;2022-07-29T00:20:41;7.65;;;7.03;;
15055;SDS011;7626;42.674;23.284;2022-07-29T00:23:08;7.10;;;6.40;;
15055;SDS011;7626;42.674;23.284;2022-07-29T00:25:34;7.28;;;6.60;;
15055;SDS011;7626;42.674;23.284;2022-07-29T00:28:01;8.63;;;7.25;;
15055;SDS011;7626;42.674;23.284;2022-07-29T00:30:27;8.77;;;7.47;;
15055;SDS011;7626;42.674;23.284;2022-07-29T00:32:55;7.57;;;6.97;;
15055;SDS011;7626;42.674;23.284;2022-07-29T00:35:22;7.80;;;7.13;;
15055;SDS011;7626;42.674;23.284;2022-07-29T00:38:06;7.32;;;6.63;;
15055;SDS011;7626;42.674;23.284;2022-07-29T00:40:32;7.78;;;7.07;;
15055;SDS011;7626;42.674;23.284;2022-07-29T00:42:59;8.30;;;7.35;;
15055;SDS011;7626;42.674;23.284;2022-07-29T00:45:26;7.78;;;7.07;;
15055;SDS011;7626;42.674;23.284;2022-07-29T00:47:56;8.52;;;7.68;;
15055;SDS011;7626;42.674;23.284;2022-07-29T00:50:23;8.18;;;6.88;;
15055;SDS011;7626;42.674;23.284;2022-07-29T00:52:50;7.85;;;7.18;;
15055;SDS011;7626;42.674;23.284;2022-07-29T00:55:16;8.13;;;7.30;;
15055;SDS011;7626;42.674;23.284;2022-07-29T00:57:43;8.20;;;7.43;;
15055;SDS011;7626;42.674;23.284;2022-07-29T01:00:11;8.70;;;7.80;;
15055;SDS011;7626;42.674;23.284;2022-07-29T01:02:38;9.52;;;8.57;;
15055;SDS011;7626;42.674;23.284;2022-07-29T01:05:06;9.43;;;8.52;;
15055;SDS011;7626;42.674;23.284;2022-07-29T01:07:33;9.60;;;8.80;;
15055;SDS011;7626;42.674;23.284;2022-07-29T01:10:00;9.52;;;8.63;;
15055;SDS011;7626;42.674;23.284;2022-07-29T01:12:27;10.27;;;9.32;;
15055;SDS011;7626;42.674;23.284;2022-07-29T01:14:56;9.90;;;8.90;;
15055;SDS011;7626;42.674;23.284;2022-07-29T01:17:26;10.23;;;9.32;;
15055;SDS011;7626;42.674;23.284;2022-07-29T01:19:56;10.50;;;9.40;;
15055;SDS011;7626;42.674;23.284;2022-07-29T01:25:23;10.80;;;9.80;;
15055;SDS011;7626;42.674;23.284;2022-07-29T01:28:01;10.45;;;9.45;;
15055;SDS011;7626;42.674;23.284;2022-07-29T01:30:32;11.07;;;9.60;;
15055;SDS011;7626;42.674;23.284;2022-07-29T01:33:00;11.40;;;10.30;;
15055;SDS011;7626;42.674;23.284;2022-07-29T01:35:28;10.68;;;9.68;;
15055;SDS011;7626;42.674;23.284;2022-07-29T01:37:57;10.88;;;9.80;;
15055;SDS011;7626;42.674;23.284;2022-07-29T01:40:29;10.40;;;9.48;;
15055;SDS011;7626;42.674;23.284;2022-07-29T01:42:57;10.88;;;9.77;;
15055;SDS011;7626;42.674;23.284;2022-07-29T01:45:25;11.00;;;10.02;;
15055;SDS011;7626;42.674;23.284;2022-07-29T01:47:56;11.25;;;10.35;;
15055;SDS011;7626;42.674;23.284;2022-07-29T01:50:25;11.40;;;10.20;;
15055;SDS011;7626;42.674;23.284;2022-07-29T01:52:54;10.95;;;9.98;;
15055;SDS011;7626;42.674;23.284;2022-07-29T01:55:23;10.95;;;9.85;;
15055;SDS011;7626;42.674;23.284;2022-07-29T01:57:51;12.50;;;9.65;;
15055;SDS011;7626;42.674;23.284;2022-07-29T02:00:18;11.55;;;10.45;;
15055;SDS011;7626;42.674;23.284;2022-07-29T02:02:45;12.73;;;10.07;;
15055;SDS011;7626;42.674;23.284;2022-07-29T02:05:15;10.77;;;9.77;;
15055;SDS011;7626;42.674;23.284;2022-07-29T02:07:43;11.75;;;10.43;;
15055;SDS011;7626;42.674;23.284;2022-07-29T02:10:11;10.88;;;9.88;;
15055;SDS011;7626;42.674;23.284;2022-07-29T02:12:38;10.68;;;9.57;;
15055;SDS011;7626;42.674;23.284;2022-07-29T02:15:05;10.38;;;9.38;;
15055;SDS011;7626;42.674;23.284;2022-07-29T02:17:33;10.05;;;9.07;;
15055;SDS011;7626;42.674;23.284;2022-07-29T02:20:02;10.00;;;9.02;;
15055;SDS011;7626;42.674;23.284;2022-07-29T02:22:31;11.63;;;8.90;;
15055;SDS011;7626;42.674;23.284;2022-07-29T02:24:59;9.40;;;8.50;;
15055;SDS011;7626;42.674;23.284;2022-07-29T02:27:27;9.70;;;8.75;;
15055;SDS011;7626;42.674;23.284;2022-07-29T02:29:54;9.50;;;8.52;;
15055;SDS011;7626;42.674;23.284;2022-07-29T02:32:21;11.37;;;8.77;;
15055;SDS011;7626;42.674;23.284;2022-07-29T02:34:49;9.27;;;8.47;;
15055;SDS011;7626;42.674;23.284;2022-07-29T02:37:16;9.73;;;8.63;;
15055;SDS011;7626;42.674;23.284;2022-07-29T02:39:44;9.93;;;8.98;;
15055;SDS011;7626;42.674;23.284;2022-07-29T02:42:13;10.18;;;9.20;;
15055;SDS011;7626;42.674;23.284;2022-07-29T02:44:40;9.93;;;9.02;;
15055;SDS011;7626;42.674;23.284;2022-07-29T02:47:10;10.17;;;9.20;;
15055;SDS011;7626;42.674;23.284;2022-07-29T02:49:37;11.20;;;9.13;;
15055;SDS011;7626;42.674;23.284;2022-07-29T02:52:06;10.18;;;9.00;;
15055;SDS011;7626;42.674;23.284;2022-07-29T02:54:37;10.70;;;9.40;;
15055;SDS011;7626;42.674;23.284;2022-07-29T02:57:09;11.20;;;10.27;;
15055;SDS011;7626;42.674;23.284;2022-07-29T02:59:37;10.83;;;9.77;;
15055;SDS011;7626;42.674;23.284;2022-07-29T03:02:05;11.57;;;10.48;;
15055;SDS011;7626;42.674;23.284;2022-07-29T03:04:33;11.52;;;10.52;;
15055;SDS011;7626;42.674;23.284;2022-07-29T03:07:00;10.98;;;9.88;;
15055;SDS011;7626;42.674;23.284;2022-07-29T03:09:27;10.60;;;9.60;;
15055;SDS011;7626;42.674;23.284;2022-07-29T03:11:54;9.85;;;8.95;;
15055;SDS011;7626;42.674;23.284;2022-07-29T03:14:23;10.67;;;9.20;;
15055;SDS011;7626;42.674;23.284;2022-07-29T03:16:50;10.60;;;8.63;;
15055;SDS011;7626;42.674;23.284;2022-07-29T03:19:17;12.60;;;9.33;;
15055;SDS011;7626;42.674;23.284;2022-07-29T03:21:44;9.90;;;9.00;;
15055;SDS011;7626;42.674;23.284;2022-07-29T03:24:11;10.05;;;9.05;;
15055;SDS011;7626;42.674;23.284;2022-07-29T03:26:49;10.13;;;9.07;;
15055;SDS011;7626;42.674;23.284;2022-07-29T03:29:16;9.87;;;8.87;;
15055;SDS011;7626;42.674;23.284;2022-07-29T03:31:44;10.73;;;9.70;;
15055;SDS011;7626;42.674;23.284;2022-07-29T03:34:10;10.27;;;8.40;;
15055;SDS011;7626;42.674;23.284;2022-07-29T03:36:37;9.60;;;8.70;;
15055;SDS011;7626;42.674;23.284;2022-07-29T03:39:03;10.20;;;9.00;;
15055;SDS011;7626;42.674;23.284;2022-07-29T03:41:30;10.27;;;9.20;;
15055;SDS011;7626;42.674;23.284;2022-07-29T03:43:57;11.17;;;10.10;;
15055;SDS011;7626;42.674;23.284;2022-07-29T03:46:24;10.23;;;9.13;;
15055;SDS011;7626;42.674;23.284;2022-07-29T03:48:58;14.43;;;9.63;;
15055;SDS011;7626;42.674;23.284;2022-07-29T03:51:29;10.87;;;8.90;;
15055;SDS011;7626;42.674;23.284;2022-07-29T03:53:56;10.50;;;9.40;;
15055;SDS011;7626;42.674;23.284;2022-07-29T03:56:22;13.73;;;9.43;;
15055;SDS011;7626;42.674;23.284;2022-07-29T03:58:49;11.87;;;10.67;;
15055;SDS011;7626;42.674;23.284;2022-07-29T04:01:16;11.75;;;10.55;;
15055;SDS011;7626;42.674;23.284;2022-07-29T04:03:43;11.53;;;10.33;;
15055;SDS011;7626;42.674;23.284;2022-07-29T04:06:11;11.20;;;10.10;;
15055;SDS011;7626;42.674;23.284;2022-07-29T04:08:38;12.57;;;9.77;;
15055;SDS011;7626;42.674;23.284;2022-07-29T04:11:05;11.30;;;10.30;;
15055;SDS011;7626;42.674;23.284;2022-07-29T04:13:32;10.97;;;9.97;;
15055;SDS011;7626;42.674;23.284;2022-07-29T04:15:58;11.20;;;10.10;;
15055;SDS011;7626;42.674;23.284;2022-07-29T04:18:25;11.27;;;9.80;;
15055;SDS011;7626;42.674;23.284;2022-07-29T04:20:51;11.07;;;9.80;;
15055;SDS011;7626;42.674;23.284;2022-07-29T04:23:19;11.27;;;10.18;;
15055;SDS011;7626;42.674;23.284;2022-07-29T04:25:46;11.23;;;10.05;;
15055;SDS011;7626;42.674;23.284;2022-07-29T04:28:12;12.48;;;11.25;;
15055;SDS011;7626;42.674;23.284;2022-07-29T04:30:39;11.75;;;10.50;;
15055;SDS011;7626;42.674;23.284;2022-07-29T04:33:06;12.65;;;11.43;;
15055;SDS011;7626;42.674;23.284;2022-07-29T04:35:34;12.00;;;10.80;;
15055;SDS011;7626;42.674;23.284;2022-07-29T04:38:01;14.87;;;11.43;;
15055;SDS011;7626;42.674;23.284;2022-07-29T04:40:29;13.77;;;12.35;;
15055;SDS011;7626;42.674;23.284;2022-07-29T04:42:56;13.90;;;11.60;;
15055;SDS011;7626;42.674;23.284;2022-07-29T04:45:22;13.52;;;12.13;;
15055;SDS011;7626;42.674;23.284;2022-07-29T04:47:49;13.30;;;11.77;;
15055;SDS011;7626;42.674;23.284;2022-07-29T04:50:15;12.35;;;11.23;;
15055;SDS011;7626;42.674;23.284;2022-07-29T04:52:42;12.98;;;11.68;;
15055;SDS011;7626;42.674;23.284;2022-07-29T04:55:08;14.13;;;12.60;;
15055;SDS011;7626;42.674;23.284;2022-07-29T04:57:36;13.80;;;12.40;;
15055;SDS011;7626;42.674;23.284;2022-07-29T05:00:04;16.33;;;11.57;;
15055;SDS011;7626;42.674;23.284;2022-07-29T05:02:31;14.38;;;11.82;;
15055;SDS011;7626;42.674;23.284;2022-07-29T05:04:57;12.85;;;11.48;;
15055;SDS011;7626;42.674;23.284;2022-07-29T05:07:24;13.30;;;11.68;;
15055;SDS011;7626;42.674;23.284;2022-07-29T05:09:50;12.20;;;11.00;;
15055;SDS011;7626;42.674;23.284;2022-07-29T05:12:18;13.77;;;11.75;;
15055;SDS011;7626;42.674;23.284;2022-07-29T05:14:45;13.25;;;11.88;;
15055;SDS011;7626;42.674;23.284;2022-07-29T05:17:12;13.45;;;12.10;;
15055;SDS011;7626;42.674;23.284;2022-07-29T05:19:38;13.68;;;12.38;;
15055;SDS011;7626;42.674;23.284;2022-07-29T05:22:05;13.35;;;12.10;;
15055;SDS011;7626;42.674;23.284;2022-07-29T05:24:32;12.80;;;11.52;;
15055;SDS011;7626;42.674;23.284;2022-07-29T05:26:58;13.73;;;12.32;;
15055;SDS011;7626;42.674;23.284;2022-07-29T05:29:24;11.70;;;9.75;;
15055;SDS011;7626;42.674;23.284;2022-07-29T05:31:52;9.65;;;8.65;;
15055;SDS011;7626;42.674;23.284;2022-07-29T05:34:19;8.27;;;7.47;;
15055;SDS011;7626;42.674;23.284;2022-07-29T05:36:45;9.20;;;8.00;;
15055;SDS011;7626;42.674;23.284;2022-07-29T05:39:12;11.80;;;8.57;;
15055;SDS011;7626;42.674;23.284;2022-07-29T05:41:39;9.43;;;8.05;;
15055;SDS011;7626;42.674;23.284;2022-07-29T05:44:05;8.20;;;7.40;;
15055;SDS011;7626;42.674;23.284;2022-07-29T05:46:32;9.52;;;8.35;;
15055;SDS011;7626;42.674;23.284;2022-07-29T05:49:00;9.65;;;7.00;;
15055;SDS011;7626;42.674;23.284;2022-07-29T05:51:27;8.70;;;7.65;;
15055;SDS011;7626;42.674;23.284;2022-07-29T05:53:54;7.78;;;7.10;;
15055;SDS011;7626;42.674;23.284;2022-07-29T05:56:21;8.95;;;7.65;;
15055;SDS011;7626;42.674;23.284;2022-07-29T05:58:48;8.90;;;7.97;;
15055;SDS011;7626;42.674;23.284;2022-07-29T06:01:14;8.75;;;8.05;;
15055;SDS011;7626;42.674;23.284;2022-07-29T06:03:41;9.43;;;8.20;;
15055;SDS011;7626;42.674;23.284;2022-07-29T06:06:09;9.65;;;8.15;;
15055;SDS011;7626;42.674;23.284;2022-07-29T06:08:36;10.73;;;8.38;;
15055;SDS011;7626;42.674;23.284;2022-07-29T06:11:03;9.50;;;8.50;;
15055;SDS011;7626;42.674;23.284;2022-07-29T06:13:30;9.23;;;7.90;;
15055;SDS011;7626;42.674;23.284;2022-07-29T06:15:56;8.77;;;7.88;;
15055;SDS011;7626;42.674;23.284;2022-07-29T06:18:23;8.02;;;7.32;;
15055;SDS011;7626;42.674;23.284;2022-07-29T06:20:49;7.28;;;6.60;;
15055;SDS011;7626;42.674;23.284;2022-07-29T06:23:18;6.68;;;6.10;;
15055;SDS011;7626;42.674;23.284;2022-07-29T06:25:44;7.57;;;6.88;;
15055;SDS011;7626;42.674;23.284;2022-07-29T06:28:11;9.93;;;6.85;;
15055;SDS011;7626;42.674;23.284;2022-07-29T06:30:37;9.63;;;8.55;;
15055;SDS011;7626;42.674;23.284;2022-07-29T06:33:04;10.40;;;7.60;;
15055;SDS011;7626;42.674;23.284;2022-07-29T06:35:32;7.78;;;7.07;;
15055;SDS011;7626;42.674;23.284;2022-07-29T06:38:00;6.70;;;6.00;;
15055;SDS011;7626;42.674;23.284;2022-07-29T06:40:28;6.45;;;5.82;;
15055;SDS011;7626;42.674;23.284;2022-07-29T06:43:11;7.00;;;6.18;;
15055;SDS011;7626;42.674;23.284;2022-07-29T06:45:38;7.03;;;6.07;;
15055;SDS011;7626;42.674;23.284;2022-07-29T06:48:06;6.45;;;5.95;;
15055;SDS011;7626;42.674;23.284;2022-07-29T06:50:32;6.85;;;6.10;;
15055;SDS011;7626;42.674;23.284;2022-07-29T06:52:59;7.38;;;5.95;;
15055;SDS011;7626;42.674;23.284;2022-07-29T06:55:25;7.38;;;6.53;;
15055;SDS011;7626;42.674;23.284;2022-07-29T06:57:53;7.45;;;6.65;;
15055;SDS011;7626;42.674;23.284;2022-07-29T07:00:20;10.65;;;7.00;;
15055;SDS011;7626;42.674;23.284;2022-07-29T07:02:46;9.82;;;6.60;;
15055;SDS011;7626;42.674;23.284;2022-07-29T07:05:13;8.43;;;6.50;;
15055;SDS011;7626;42.674;23.284;2022-07-29T07:07:39;6.35;;;5.75;;
15055;SDS011;7626;42.674;23.284;2022-07-29T07:10:06;6.63;;;5.60;;
15055;SDS011;7626;42.674;23.284;2022-07-29T07:12:33;6.10;;;5.50;;
15055;SDS011;7626;42.674;23.284;2022-07-29T07:15:01;5.68;;;5.18;;
15055;SDS011;7626;42.674;23.284;2022-07-29T07:17:28;7.97;;;6.72;;
15055;SDS011;7626;42.674;23.284;2022-07-29T07:19:54;8.57;;;7.03;;
15055;SDS011;7626;42.674;23.284;2022-07-29T07:22:21;7.10;;;6.50;;
15055;SDS011;7626;42.674;23.284;2022-07-29T07:24:47;6.65;;;6.05;;
15055;SDS011;7626;42.674;23.284;2022-07-29T07:27:14;6.45;;;5.85;;
15055;SDS011;7626;42.674;23.284;2022-07-29T07:29:40;6.60;;;6.00;;
15055;SDS011;7626;42.674;23.284;2022-07-29T07:32:08;6.72;;;5.90;;
15055;SDS011;7626;42.674;23.284;2022-07-29T07:34:35;7.57;;;5.65;;
15055;SDS011;7626;42.674;23.284;2022-07-29T07:37:02;6.43;;;5.70;;
15055;SDS011;7626;42.674;23.284;2022-07-29T07:39:29;8.68;;;5.57;;
15055;SDS011;7626;42.674;23.284;2022-07-29T07:41:55;9.20;;;5.70;;
15055;SDS011;7626;42.674;23.284;2022-07-29T07:44:22;5.93;;;5.32;;
15055;SDS011;7626;42.674;23.284;2022-07-29T07:46:48;6.55;;;6.05;;
15055;SDS011;7626;42.674;23.284;2022-07-29T07:49:16;6.47;;;5.78;;
15055;SDS011;7626;42.674;23.284;2022-07-29T07:51:43;6.43;;;5.80;;
15055;SDS011;7626;42.674;23.284;2022-07-29T07:54:10;8.02;;;5.38;;
15055;SDS011;7626;42.674;23.284;2022-07-29T07:56:36;6.38;;;5.78;;
15055;SDS011;7626;42.674;23.284;2022-07-29T07:59:03;5.25;;;4.75;;
15055;SDS011;7626;42.674;23.284;2022-07-29T08:01:29;5.28;;;4.88;;
15055;SDS011;7626;42.674;23.284;2022-07-29T08:03:56;5.07;;;4.68;;
15055;SDS011;7626;42.674;23.284;2022-07-29T08:06:24;5.65;;;5.13;;
15055;SDS011;7626;42.674;23.284;2022-07-29T08:08:50;5.43;;;4.90;;
15055;SDS011;7626;42.674;23.284;2022-07-29T08:11:17;5.32;;;4.75;;
15055;SDS011;7626;42.674;23.284;2022-07-29T08:13:43;5.68;;;5.15;;
15055;SDS011;7626;42.674;23.284;2022-07-29T08:16:10;5.10;;;4.70;;
15055;SDS011;7626;42.674;23.284;2022-07-29T08:18:40;5.43;;;4.70;;
15055;SDS011;7626;42.674;23.284;2022-07-29T08:21:07;5.10;;;4.60;;
15055;SDS011;7626;42.674;23.284;2022-07-29T08:23:35;5.22;;;4.65;;
15055;SDS011;7626;42.674;23.284;2022-07-29T08:26:04;5.32;;;4.50;;
15055;SDS011;7626;42.674;23.284;2022-07-29T08:28:35;5.20;;;4.80;;
15055;SDS011;7626;42.674;23.284;2022-07-29T08:31:01;5.15;;;4.50;;
15055;SDS011;7626;42.674;23.284;2022-07-29T08:33:28;4.85;;;4.43;;
15055;SDS011;7626;42.674;23.284;2022-07-29T08:35:54;5.63;;;4.60;;
15055;SDS011;7626;42.674;23.284;2022-07-29T08:38:21;4.88;;;4.47;;
15055;SDS011;7626;42.674;23.284;2022-07-29T08:40:49;4.97;;;4.63;;
15055;SDS011;7626;42.674;23.284;2022-07-29T08:43:15;4.93;;;4.53;;
15055;SDS011;7626;42.674;23.284;2022-07-29T08:45:42;5.28;;;4.88;;
15055;SDS011;7626;42.674;23.284;2022-07-29T08:48:11;5.10;;;4.55;;
15055;SDS011;7626;42.674;23.284;2022-07-29T08:50:37;4.90;;;4.50;;
15055;SDS011;7626;42.674;23.284;2022-07-29T08:53:04;5.18;;;4.50;;
15055;SDS011;7626;42.674;23.284;2022-07-29T08:55:31;4.90;;;4.40;;
15055;SDS011;7626;42.674;23.284;2022-07-29T08:58:00;4.75;;;4.22;;
15055;SDS011;7626;42.674;23.284;2022-07-29T09:00:27;4.75;;;4.35;;
15055;SDS011;7626;42.674;23.284;2022-07-29T09:02:55;4.80;;;4.40;;
15055;SDS011;7626;42.674;23.284;2022-07-29T09:05:23;4.53;;;4.13;;
15055;SDS011;7626;42.674;23.284;2022-07-29T09:07:50;4.78;;;4.38;;
15055;SDS011;7626;42.674;23.284;2022-07-29T09:10:17;4.82;;;4.45;;
15055;SDS011;7626;42.674;23.284;2022-07-29T09:12:43;5.00;;;4.60;;
15055;SDS011;7626;42.674;23.284;2022-07-29T09:15:12;5.18;;;4.53;;
15055;SDS011;7626;42.674;23.284;2022-07-29T09:17:42;4.78;;;4.38;;
15055;SDS011;7626;42.674;23.284;2022-07-29T09:20:09;4.80;;;4.40;;
15055;SDS011;7626;42.674;23.284;2022-07-29T09:22:36;4.65;;;4.25;;
15055;SDS011;7626;42.674;23.284;2022-07-29T09:25:03;4.85;;;4.45;;
15055;SDS011;7626;42.674;23.284;2022-07-29T09:27:29;6.47;;;5.20;;
15055;SDS011;7626;42.674;23.284;2022-07-29T09:29:56;5.93;;;5.00;;
15055;SDS011;7626;42.674;23.284;2022-07-29T09:32:25;5.18;;;4.68;;
15055;SDS011;7626;42.674;23.284;2022-07-29T09:37:34;5.10;;;4.70;;
15055;SDS011;7626;42.674;23.284;2022-07-29T09:40:00;4.63;;;4.20;;
15055;SDS011;7626;42.674;23.284;2022-07-29T09:42:37;4.72;;;4.32;;
15055;SDS011;7626;42.674;23.284;2022-07-29T09:45:03;4.57;;;4.22;;
15055;SDS011;7626;42.674;23.284;2022-07-29T09:47:41;4.85;;;4.40;;
15055;SDS011;7626;42.674;23.284;2022-07-29T09:50:10;4.45;;;4.15;;
15055;SDS011;7626;42.674;23.284;2022-07-29T09:52:44;4.35;;;4.00;;
15055;SDS011;7626;42.674;23.284;2022-07-29T09:55:11;4.40;;;4.10;;
15055;SDS011;7626;42.674;23.284;2022-07-29T09:57:38;4.75;;;4.30;;
15055;SDS011;7626;42.674;23.284;2022-07-29T10:00:05;4.85;;;4.45;;
15055;SDS011;7626;42.674;23.284;2022-07-29T10:02:32;4.90;;;4.40;;
15055;SDS011;7626;42.674;23.284;2022-07-29T10:05:00;5.13;;;4.63;;
15055;SDS011;7626;42.674;23.284;2022-07-29T10:07:42;5.28;;;4.60;;
15055;SDS011;7626;42.674;23.284;2022-07-29T10:10:09;5.32;;;4.80;;
15055;SDS011;7626;42.674;23.284;2022-07-29T10:12:43;5.80;;;5.30;;
15055;SDS011;7626;42.674;23.284;2022-07-29T10:15:14;5.88;;;5.47;;
15055;SDS011;7626;42.674;23.284;2022-07-29T10:17:41;5.70;;;5.22;;
15055;SDS011;7626;42.674;23.284;2022-07-29T10:20:09;5.75;;;5.20;;
15055;SDS011;7626;42.674;23.284;2022-07-29T10:22:36;5.28;;;4.88;;
15055;SDS011;7626;42.674;23.284;2022-07-29T10:25:03;5.38;;;4.97;;
15055;SDS011;7626;42.674;23.284;2022-07-29T10:27:29;5.22;;;4.82;;
15055;SDS011;7626;42.674;23.284;2022-07-29T10:29:56;5.25;;;4.80;;
15055;SDS011;7626;42.674;23.284;2022-07-29T10:32:29;5.53;;;5.10;;
15055;SDS011;7626;42.674;23.284;2022-07-29T10:35:06;5.05;;;4.55;;
15055;SDS011;7626;42.674;23.284;2022-07-29T10:37:45;5.15;;;4.63;;
15055;SDS011;7626;42.674;23.284;2022-07-29T10:40:15;5.28;;;4.88;;
15055;SDS011;7626;42.674;23.284;2022-07-29T10:43:03;5.90;;;5.40;;
15055;SDS011;7626;42.674;23.284;2022-07-29T10:45:34;6.15;;;5.68;;
15055;SDS011;7626;42.674;23.284;2022-07-29T10:48:03;5.20;;;4.80;;
15055;SDS011;7626;42.674;23.284;2022-07-29T10:53:13;5.20;;;4.70;;
15055;SDS011;7626;42.674;23.284;2022-07-29T10:55:41;6.15;;;5.55;;
15055;SDS011;7626;42.674;23.284;2022-07-29T10:58:13;5.88;;;5.28;;
15055;SDS011;7626;42.674;23.284;2022-07-29T11:00:40;5.63;;;5.13;;
15055;SDS011;7626;42.674;23.284;2022-07-29T11:03:07;6.03;;;5.63;;
15055;SDS011;7626;42.674;23.284;2022-07-29T11:08:28;6.00;;;5.50;;
15055;SDS011;7626;42.674;23.284;2022-07-29T11:13:47;6.10;;;5.60;;
15055;SDS011;7626;42.674;23.284;2022-07-29T11:16:15;5.93;;;5.40;;
15055;SDS011;7626;42.674;23.284;2022-07-29T11:21:36;6.43;;;5.80;;
15055;SDS011;7626;42.674;23.284;2022-07-29T11:24:12;6.25;;;5.75;;
15055;SDS011;7626;42.674;23.284;2022-07-29T11:26:39;5.88;;;5.32;;
15055;SDS011;7626;42.674;23.284;2022-07-29T11:29:13;5.72;;;5.22;;
15055;SDS011;7626;42.674;23.284;2022-07-29T11:31:43;5.53;;;5.07;;
15055;SDS011;7626;42.674;23.284;2022-07-29T11:34:16;6.45;;;5.97;;
15055;SDS011;7626;42.674;23.284;2022-07-29T11:39:30;6.20;;;5.70;;
15055;SDS011;7626;42.674;23.284;2022-07-29T11:42:03;6.15;;;5.65;;
15055;SDS011;7626;42.674;23.284;2022-07-29T11:44:54;7.13;;;6.47;;
15055;SDS011;7626;42.674;23.284;2022-07-29T11:47:22;6.20;;;5.70;;
15055;SDS011;7626;42.674;23.284;2022-07-29T11:49:49;6.32;;;5.78;;
15055;SDS011;7626;42.674;23.284;2022-07-29T11:52:16;6.07;;;5.60;;
15055;SDS011;7626;42.674;23.284;2022-07-29T11:54:43;6.10;;;5.60;;
15055;SDS011;7626;42.674;23.284;2022-07-29T11:57:10;5.88;;;5.47;;
15055;SDS011;7626;42.674;23.284;2022-07-29T11:59:38;6.50;;;5.93;;
15055;SDS011;7626;42.674;23.284;2022-07-29T12:02:08;5.95;;;5.55;;
15055;SDS011;7626;42.674;23.284;2022-07-29T12:04:43;5.90;;;5.50;;
15055;SDS011;7626;42.674;23.284;2022-07-29T12:07:13;6.40;;;5.90;;
15055;SDS011;7626;42.674;23.284;2022-07-29T12:09:41;6.30;;;5.90;;
15055;SDS011;7626;42.674;23.284;2022-07-29T12:12:15;5.70;;;5.30;;
15055;SDS011;7626;42.674;23.284;2022-07-29T12:14:42;6.07;;;5.68;;
15055;SDS011;7626;42.674;23.284;2022-07-29T12:17:25;6.32;;;5.82;;
15055;SDS011;7626;42.674;23.284;2022-07-29T12:19:52;6.18;;;5.68;;
15055;SDS011;7626;42.674;23.284;2022-07-29T12:22:24;5.47;;;5.07;;
15055;SDS011;7626;42.674;23.284;2022-07-29T12:24:51;5.60;;;5.20;;
15055;SDS011;7626;42.674;23.284;2022-07-29T12:27:17;5.82;;;5.43;;
15055;SDS011;7626;42.674;23.284;2022-07-29T12:29:44;6.53;;;6.03;;
15055;SDS011;7626;42.674;23.284;2022-07-29T12:32:11;6.13;;;5.63;;
15055;SDS011;7626;42.674;23.284;2022-07-29T12:34:39;5.97;;;5.47;;
15055;SDS011;7626;42.674;23.284;2022-07-29T12:37:06;6.40;;;5.80;;
15055;SDS011;7626;42.674;23.284;2022-07-29T12:39:35;5.82;;;5.32;;
15055;SDS011;7626;42.674;23.284;2022-07-29T12:42:10;6.68;;;5.97;;
15055;SDS011;7626;42.674;23.284;2022-07-29T12:44:43;6.13;;;5.57;;
15055;SDS011;7626;42.674;23.284;2022-07-29T12:47:10;6.05;;;5.60;;
15055;SDS011;7626;42.674;23.284;2022-07-29T12:49:36;6.57;;;5.97;;
15055;SDS011;7626;42.674;23.284;2022-07-29T12:54:47;5.75;;;5.30;;
15055;SDS011;7626;42.674;23.284;2022-07-29T12:57:14;6.45;;;5.95;;
15055;SDS011;7626;42.674;23.284;2022-07-29T12:59:40;6.65;;;6.15;;
15055;SDS011;7626;42.674;23.284;2022-07-29T13:02:19;6.30;;;5.75;;
15055;SDS011;7626;42.674;23.284;2022-07-29T13:04:54;5.63;;;5.22;;
15055;SDS011;7626;42.674;23.284;2022-07-29T13:07:23;6.72;;;6.15;;
15055;SDS011;7626;42.674;23.284;2022-07-29T13:09:51;6.18;;;5.68;;
15055;SDS011;7626;42.674;23.284;2022-07-29T13:12:18;6.00;;;5.50;;
15055;SDS011;7626;42.674;23.284;2022-07-29T13:14:46;6.28;;;5.88;;
15055;SDS011;7626;42.674;23.284;2022-07-29T13:17:13;6.15;;;5.65;;
15055;SDS011;7626;42.674;23.284;2022-07-29T13:19:41;7.80;;;6.85;;
15055;SDS011;7626;42.674;23.284;2022-07-29T13:22:08;6.80;;;6.10;;
15055;SDS011;7626;42.674;23.284;2022-07-29T13:24:44;6.90;;;6.38;;
15055;SDS011;7626;42.674;23.284;2022-07-29T13:27:12;6.28;;;5.78;;
15055;SDS011;7626;42.674;23.284;2022-07-29T13:29:39;6.20;;;5.70;;
15055;SDS011;7626;42.674;23.284;2022-07-29T13:32:06;6.60;;;6.10;;
15055;SDS011;7626;42.674;23.284;2022-07-29T13:34:32;6.28;;;5.80;;
15055;SDS011;7626;42.674;23.284;2022-07-29T13:36:59;6.63;;;6.10;;
15055;SDS011;7626;42.674;23.284;2022-07-29T13:39:25;6.40;;;5.85;;
15055;SDS011;7626;42.674;23.284;2022-07-29T13:41:52;6.53;;;5.93;;
15055;SDS011;7626;42.674;23.284;2022-07-29T13:44:20;5.72;;;5.32;;
15055;SDS011;7626;42.674;23.284;2022-07-29T13:46:46;6.93;;;6.32;;
15055;SDS011;7626;42.674;23.284;2022-07-29T13:49:13;6.22;;;5.72;;
15055;SDS011;7626;42.674;23.284;2022-07-29T13:51:39;6.13;;;5.63;;
15055;SDS011;7626;42.674;23.284;2022-07-29T13:54:06;6.03;;;5.60;;
15055;SDS011;7626;42.674;23.284;2022-07-29T13:56:32;5.82;;;5.32;;
15055;SDS011;7626;42.674;23.284;2022-07-29T13:58:59;5.72;;;5.32;;
15055;SDS011;7626;42.674;23.284;2022-07-29T14:01:27;6.43;;;5.90;;
15055;SDS011;7626;42.674;23.284;2022-07-29T14:03:55;5.88;;;5.47;;
15055;SDS011;7626;42.674;23.284;2022-07-29T14:06:21;8.70;;;5.80;;
15055;SDS011;7626;42.674;23.284;2022-07-29T14:08:48;5.68;;;5.20;;
15055;SDS011;7626;42.674;23.284;2022-07-29T14:11:14;5.95;;;5.50;;
15055;SDS011;7626;42.674;23.284;2022-07-29T14:13:41;5.95;;;5.45;;
15055;SDS011;7626;42.674;23.284;2022-07-29T14:16:07;6.43;;;5.93;;
15055;SDS011;7626;42.674;23.284;2022-07-29T14:18:35;6.32;;;5.82;;
15055;SDS011;7626;42.674;23.284;2022-07-29T14:21:02;5.75;;;5.35;;
15055;SDS011;7626;42.674;23.284;2022-07-29T14:23:28;6.28;;;5.80;;
15055;SDS011;7626;42.674;23.284;2022-07-29T14:25:55;5.53;;;5.13;;
15055;SDS011;7626;42.674;23.284;2022-07-29T14:28:21;6.15;;;5.60;;
15055;SDS011;7626;42.674;23.284;2022-07-29T14:30:48;6.20;;;5.60;;
15055;SDS011;7626;42.674;23.284;2022-07-29T14:33:14;5.90;;;5.40;;
15055;SDS011;7626;42.674;23.284;2022-07-29T14:35:42;6.30;;;5.80;;
15055;SDS011;7626;42.674;23.284;2022-07-29T14:38:09;6.60;;;5.90;;
15055;SDS011;7626;42.674;23.284;2022-07-29T14:40:36;6.55;;;5.95;;
15055;SDS011;7626;42.674;23.284;2022-07-29T14:43:03;6.20;;;5.70;;
15055;SDS011;7626;42.674;23.284;2022-07-29T14:45:29;6.50;;;6.00;;
15055;SDS011;7626;42.674;23.284;2022-07-29T14:47:56;5.70;;;5.30;;
15055;SDS011;7626;42.674;23.284;2022-07-29T14:50:23;6.43;;;5.93;;
15055;SDS011;7626;42.674;23.284;2022-07-29T14:52:52;6.18;;;5.75;;
15055;SDS011;7626;42.674;23.284;2022-07-29T14:55:19;6.70;;;6.10;;
15055;SDS011;7626;42.674;23.284;2022-07-29T14:57:46;6.28;;;5.68;;
15055;SDS011;7626;42.674;23.284;2022-07-29T15:00:12;6.43;;;5.82;;
15055;SDS011;7626;42.674;23.284;2022-07-29T15:02:39;6.85;;;6.35;;
15055;SDS011;7626;42.674;23.284;2022-07-29T15:05:06;7.53;;;6.80;;
15055;SDS011;7626;42.674;23.284;2022-07-29T15:07:32;6.35;;;5.85;;
15055;SDS011;7626;42.674;23.284;2022-07-29T15:10:00;6.70;;;6.15;;